sensor_id;sensor_type;location;lat;lon;timestamp;P1;P2;P0
80413;PMS5003;69758;52.580;13.068;2023-12-04T00:00:49;44;43;
80413;PMS5003;69758;52.580;13.068;2023-12-04T00:03:15;50;46;
80413;PMS5003;69758;52.580;13.068;2023-12-04T00:05:41;44;43;
80413;PMS5003;69758;52.580;13.068;2023-12-04T00:08:06;37;34;
80413;PMS5003;69758;52.580;13.068;2023-12-04T00:10:31;40;37;
80413;PMS5003;69758;52.580;13.068;2023-12-04T00:12:57;42;39;
80413;PMS5003;69758;52.580;13.068;2023-12-04T00:15:22;43;40;
80413;PMS5003;69758;52.580;13.068;2023-12-04T00:17:48;56;50;
80413;PMS5003;69758;52.580;13.068;2023-12-04T00:20:13;40;37;
80413;PMS5003;69758;52.580;13.068;2023-12-04T00:22:38;43;39;
80413;PMS5003;69758;52.580;13.068;2023-12-04T00:25:04;42;42;
80413;PMS5003;69758;52.580;13.068;2023-12-04T00:27:29;42;40;
80413;PMS5003;69758;52.580;13.068;2023-12-04T00:29:54;46;37;
80413;PMS5003;69758;52.580;13.068;2023-12-04T00:32:20;56;43;
80413;PMS5003;69758;52.580;13.068;2023-12-04T00:34:45;52;46;
80413;PMS5003;69758;52.580;13.068;2023-12-04T00:37:11;44;43;
80413;PMS5003;69758;52.580;13.068;2023-12-04T00:39:36;53;40;
80413;PMS5003;69758;52.580;13.068;2023-12-04T00:42:02;47;43;
80413;PMS5003;69758;52.580;13.068;2023-12-04T00:44:27;55;51;
80413;PMS5003;69758;52.580;13.068;2023-12-04T00:46:53;57;54;
80413;PMS5003;69758;52.580;13.068;2023-12-04T00:49:18;39;36;
80413;PMS5003;69758;52.580;13.068;2023-12-04T00:51:44;45;41;
80413;PMS5003;69758;52.580;13.068;2023-12-04T00:54:10;45;43;
80413;PMS5003;69758;52.580;13.068;2023-12-04T00:56:37;52;46;
80413;PMS5003;69758;52.580;13.068;2023-12-04T00:59:00;45;41;
80413;PMS5003;69758;52.580;13.068;2023-12-04T01:01:26;36;36;
80413;PMS5003;69758;52.580;13.068;2023-12-04T01:03:51;46;41;
80413;PMS5003;69758;52.580;13.068;2023-12-04T01:06:20;33;30;
80413;PMS5003;69758;52.580;13.068;2023-12-04T01:08:42;39;35;
80413;PMS5003;69758;52.580;13.068;2023-12-04T01:11:08;39;33;
80413;PMS5003;69758;52.580;13.068;2023-12-04T01:13:34;42;41;
80413;PMS5003;69758;52.580;13.068;2023-12-04T01:15:59;42;39;
80413;PMS5003;69758;52.580;13.068;2023-12-04T01:18:25;41;38;
80413;PMS5003;69758;52.580;13.068;2023-12-04T01:20:50;38;36;
80413;PMS5003;69758;52.580;13.068;2023-12-04T01:23:15;36;35;
80413;PMS5003;69758;52.580;13.068;2023-12-04T01:25:41;42;36;
80413;PMS5003;69758;52.580;13.068;2023-12-04T01:28:06;44;39;
80413;PMS5003;69758;52.580;13.068;2023-12-04T01:30:31;38;32;
80413;PMS5003;69758;52.580;13.068;2023-12-04T01:32:57;38;35;
80413;PMS5003;69758;52.580;13.068;2023-12-04T01:35:22;36;33;
80413;PMS5003;69758;52.580;13.068;2023-12-04T01:37:47;56;45;
80413;PMS5003;69758;52.580;13.068;2023-12-04T01:40:13;28;28;
80413;PMS5003;69758;52.580;13.068;2023-12-04T01:42:38;50;42;
80413;PMS5003;69758;52.580;13.068;2023-12-04T01:45:04;36;36;
80413;PMS5003;69758;52.580;13.068;2023-12-04T01:47:29;36;35;
80413;PMS5003;69758;52.580;13.068;2023-12-04T01:49:54;36;32;
80413;PMS5003;69758;52.580;13.068;2023-12-04T01:52:20;38;35;
80413;PMS5003;69758;52.580;13.068;2023-12-04T01:54:45;30;26;
80413;PMS5003;69758;52.580;13.068;2023-12-04T01:57:11;35;30;
80413;PMS5003;69758;52.580;13.068;2023-12-04T01:59:36;39;33;
80413;PMS5003;69758;52.580;13.068;2023-12-04T02:02:02;32;32;
80413;PMS5003;69758;52.580;13.068;2023-12-04T02:04:27;36;29;
80413;PMS5003;69758;52.580;13.068;2023-12-04T02:06:53;42;35;
80413;PMS5003;69758;52.580;13.068;2023-12-04T02:09:18;41;38;
80413;PMS5003;69758;52.580;13.068;2023-12-04T02:11:44;38;36;
80413;PMS5003;69758;52.580;13.068;2023-12-04T02:14:09;42;38;
80413;PMS5003;69758;52.580;13.068;2023-12-04T02:16:36;38;27;
80413;PMS5003;69758;52.580;13.068;2023-12-04T02:19:01;39;33;
80413;PMS5003;69758;52.580;13.068;2023-12-04T02:21:26;35;33;
80413;PMS5003;69758;52.580;13.068;2023-12-04T02:23:51;39;33;
80413;PMS5003;69758;52.580;13.068;2023-12-04T02:26:17;44;39;
80413;PMS5003;69758;52.580;13.068;2023-12-04T02:28:42;35;32;
80413;PMS5003;69758;52.580;13.068;2023-12-04T02:31:08;35;30;
80413;PMS5003;69758;52.580;13.068;2023-12-04T02:33:33;41;38;
80413;PMS5003;69758;52.580;13.068;2023-12-04T02:35:59;45;39;
80413;PMS5003;69758;52.580;13.068;2023-12-04T02:38:24;41;38;
80413;PMS5003;69758;52.580;13.068;2023-12-04T02:40:50;42;33;
80413;PMS5003;69758;52.580;13.068;2023-12-04T02:43:15;39;36;
80413;PMS5003;69758;52.580;13.068;2023-12-04T02:45:40;37;32;
80413;PMS5003;69758;52.580;13.068;2023-12-04T02:48:06;38;36;
80413;PMS5003;69758;52.580;13.068;2023-12-04T02:50:30;32;30;
80413;PMS5003;69758;52.580;13.068;2023-12-04T02:52:56;32;27;
80413;PMS5003;69758;52.580;13.068;2023-12-04T02:55:22;36;27;
80413;PMS5003;69758;52.580;13.068;2023-12-04T02:57:47;29;29;
80413;PMS5003;69758;52.580;13.068;2023-12-04T03:00:13;38;38;
80413;PMS5003;69758;52.580;13.068;2023-12-04T03:02:38;39;36;
80413;PMS5003;69758;52.580;13.068;2023-12-04T03:05:03;38;32;
80413;PMS5003;69758;52.580;13.068;2023-12-04T03:07:29;42;39;
80413;PMS5003;69758;52.580;13.068;2023-12-04T03:09:54;45;39;
80413;PMS5003;69758;52.580;13.068;2023-12-04T03:12:19;43;38;
80413;PMS5003;69758;52.580;13.068;2023-12-04T03:14:44;42;41;
80413;PMS5003;69758;52.580;13.068;2023-12-04T03:17:10;45;40;
80413;PMS5003;69758;52.580;13.068;2023-12-04T03:19:36;42;37;
80413;PMS5003;69758;52.580;13.068;2023-12-04T03:22:01;45;37;
80413;PMS5003;69758;52.580;13.068;2023-12-04T03:24:26;45;42;
80413;PMS5003;69758;52.580;13.068;2023-12-04T03:26:52;45;37;
80413;PMS5003;69758;52.580;13.068;2023-12-04T03:29:17;39;36;
80413;PMS5003;69758;52.580;13.068;2023-12-04T03:31:42;39;34;
80413;PMS5003;69758;52.580;13.068;2023-12-04T03:34:08;50;40;
80413;PMS5003;69758;52.580;13.068;2023-12-04T03:36:33;39;36;
80413;PMS5003;69758;52.580;13.068;2023-12-04T03:38:58;47;40;
80413;PMS5003;69758;52.580;13.068;2023-12-04T03:41:24;43;36;
80413;PMS5003;69758;52.580;13.068;2023-12-04T03:43:49;46;40;
80413;PMS5003;69758;52.580;13.068;2023-12-04T03:46:15;39;39;
80413;PMS5003;69758;52.580;13.068;2023-12-04T03:48:41;43;36;
80413;PMS5003;69758;52.580;13.068;2023-12-04T03:51:06;53;43;
80413;PMS5003;69758;52.580;13.068;2023-12-04T03:53:32;42;39;
80413;PMS5003;69758;52.580;13.068;2023-12-04T03:55:57;49;40;
80413;PMS5003;69758;52.580;13.068;2023-12-04T03:58:22;35;34;
80413;PMS5003;69758;52.580;13.068;2023-12-04T04:00:48;43;39;
80413;PMS5003;69758;52.580;13.068;2023-12-04T04:03:14;52;47;
80413;PMS5003;69758;52.580;13.068;2023-12-04T04:05:39;46;43;
80413;PMS5003;69758;52.580;13.068;2023-12-04T04:08:04;40;36;
80413;PMS5003;69758;52.580;13.068;2023-12-04T04:10:29;53;44;
80413;PMS5003;69758;52.580;13.068;2023-12-04T04:12:55;56;49;
80413;PMS5003;69758;52.580;13.068;2023-12-04T04:15:20;41;34;
80413;PMS5003;69758;52.580;13.068;2023-12-04T04:17:46;33;31;
80413;PMS5003;69758;52.580;13.068;2023-12-04T04:20:12;34;34;
80413;PMS5003;69758;52.580;13.068;2023-12-04T04:22:36;36;33;
80413;PMS5003;69758;52.580;13.068;2023-12-04T04:25:02;41;37;
80413;PMS5003;69758;52.580;13.068;2023-12-04T04:27:27;41;40;
80413;PMS5003;69758;52.580;13.068;2023-12-04T04:29:52;41;37;
80413;PMS5003;69758;52.580;13.068;2023-12-04T04:32:17;37;37;
80413;PMS5003;69758;52.580;13.068;2023-12-04T04:34:42;53;48;
80413;PMS5003;69758;52.580;13.068;2023-12-04T04:37:08;38;36;
80413;PMS5003;69758;52.580;13.068;2023-12-04T04:39:33;38;33;
80413;PMS5003;69758;52.580;13.068;2023-12-04T04:41:58;40;36;
80413;PMS5003;69758;52.580;13.068;2023-12-04T04:44:24;38;35;
80413;PMS5003;69758;52.580;13.068;2023-12-04T04:46:49;44;40;
80413;PMS5003;69758;52.580;13.068;2023-12-04T04:49:15;50;45;
80413;PMS5003;69758;52.580;13.068;2023-12-04T04:51:40;44;37;
80413;PMS5003;69758;52.580;13.068;2023-12-04T04:54:05;46;37;
80413;PMS5003;69758;52.580;13.068;2023-12-04T04:56:30;42;41;
80413;PMS5003;69758;52.580;13.068;2023-12-04T04:58:56;51;48;
80413;PMS5003;69758;52.580;13.068;2023-12-04T05:01:21;34;33;
80413;PMS5003;69758;52.580;13.068;2023-12-04T05:03:46;31;31;
80413;PMS5003;69758;52.580;13.068;2023-12-04T05:06:12;57;44;
80413;PMS5003;69758;52.580;13.068;2023-12-04T05:08:37;56;43;
80413;PMS5003;69758;52.580;13.068;2023-12-04T05:11:03;54;44;
80413;PMS5003;69758;52.580;13.068;2023-12-04T05:13:28;43;41;
80413;PMS5003;69758;52.580;13.068;2023-12-04T05:15:54;44;38;
80413;PMS5003;69758;52.580;13.068;2023-12-04T05:18:19;37;36;
80413;PMS5003;69758;52.580;13.068;2023-12-04T05:20:44;36;31;
80413;PMS5003;69758;52.580;13.068;2023-12-04T05:23:10;46;38;
80413;PMS5003;69758;52.580;13.068;2023-12-04T05:25:35;47;38;
80413;PMS5003;69758;52.580;13.068;2023-12-04T05:28:01;48;45;
80413;PMS5003;69758;52.580;13.068;2023-12-04T05:30:26;41;40;
80413;PMS5003;69758;52.580;13.068;2023-12-04T05:32:52;35;34;
80413;PMS5003;69758;52.580;13.068;2023-12-04T05:35:18;40;34;
80413;PMS5003;69758;52.580;13.068;2023-12-04T05:37:43;45;40;
80413;PMS5003;69758;52.580;13.068;2023-12-04T05:40:08;47;35;
80413;PMS5003;69758;52.580;13.068;2023-12-04T05:42:34;48;41;
80413;PMS5003;69758;52.580;13.068;2023-12-04T05:45:00;44;41;
80413;PMS5003;69758;52.580;13.068;2023-12-04T05:47:25;41;40;
80413;PMS5003;69758;52.580;13.068;2023-12-04T05:49:51;38;35;
80413;PMS5003;69758;52.580;13.068;2023-12-04T05:52:16;51;41;
80413;PMS5003;69758;52.580;13.068;2023-12-04T05:54:41;34;32;
80413;PMS5003;69758;52.580;13.068;2023-12-04T05:57:07;40;35;
80413;PMS5003;69758;52.580;13.068;2023-12-04T05:59:32;33;33;
80413;PMS5003;69758;52.580;13.068;2023-12-04T06:01:58;45;40;
80413;PMS5003;69758;52.580;13.068;2023-12-04T06:04:23;41;37;
80413;PMS5003;69758;52.580;13.068;2023-12-04T06:06:49;58;48;
80413;PMS5003;69758;52.580;13.068;2023-12-04T06:09:13;40;37;
80413;PMS5003;69758;52.580;13.068;2023-12-04T06:11:39;41;37;
80413;PMS5003;69758;52.580;13.068;2023-12-04T06:14:05;35;32;
80413;PMS5003;69758;52.580;13.068;2023-12-04T06:16:30;31;28;
80413;PMS5003;69758;52.580;13.068;2023-12-04T06:18:56;41;37;
80413;PMS5003;69758;52.580;13.068;2023-12-04T06:21:21;35;29;
80413;PMS5003;69758;52.580;13.068;2023-12-04T06:23:46;38;32;
80413;PMS5003;69758;52.580;13.068;2023-12-04T06:26:12;34;34;
80413;PMS5003;69758;52.580;13.068;2023-12-04T06:28:38;47;38;
80413;PMS5003;69758;52.580;13.068;2023-12-04T06:31:03;35;32;
80413;PMS5003;69758;52.580;13.068;2023-12-04T06:33:29;45;38;
80413;PMS5003;69758;52.580;13.068;2023-12-04T06:35:54;45;43;
80413;PMS5003;69758;52.580;13.068;2023-12-04T06:38:19;37;34;
80413;PMS5003;69758;52.580;13.068;2023-12-04T06:40:44;37;34;
80413;PMS5003;69758;52.580;13.068;2023-12-04T06:43:10;44;37;
80413;PMS5003;69758;52.580;13.068;2023-12-04T06:45:35;32;29;
80413;PMS5003;69758;52.580;13.068;2023-12-04T06:48:00;44;35;
80413;PMS5003;69758;52.580;13.068;2023-12-04T06:50:26;42;41;
80413;PMS5003;69758;52.580;13.068;2023-12-04T06:52:52;38;32;
80413;PMS5003;69758;52.580;13.068;2023-12-04T06:55:17;38;35;
80413;PMS5003;69758;52.580;13.068;2023-12-04T06:57:42;39;35;
80413;PMS5003;69758;52.580;13.068;2023-12-04T07:00:08;36;34;
80413;PMS5003;69758;52.580;13.068;2023-12-04T07:02:32;37;34;
80413;PMS5003;69758;52.580;13.068;2023-12-04T07:04:58;37;37;
80413;PMS5003;69758;52.580;13.068;2023-12-04T07:07:24;37;34;
80413;PMS5003;69758;52.580;13.068;2023-12-04T07:09:50;36;32;
80413;PMS5003;69758;52.580;13.068;2023-12-04T07:12:15;41;38;
80413;PMS5003;69758;52.580;13.068;2023-12-04T07:14:41;41;38;
80413;PMS5003;69758;52.580;13.068;2023-12-04T07:17:06;35;29;
80413;PMS5003;69758;52.580;13.068;2023-12-04T07:19:32;42;38;
80413;PMS5003;69758;52.580;13.068;2023-12-04T07:21:57;35;34;
80413;PMS5003;69758;52.580;13.068;2023-12-04T07:24:22;39;38;
80413;PMS5003;69758;52.580;13.068;2023-12-04T07:26:48;49;46;
80413;PMS5003;69758;52.580;13.068;2023-12-04T07:29:13;46;44;
80413;PMS5003;69758;52.580;13.068;2023-12-04T07:31:39;46;41;
80413;PMS5003;69758;52.580;13.068;2023-12-04T07:34:04;55;42;
80413;PMS5003;69758;52.580;13.068;2023-12-04T07:36:30;35;35;
80413;PMS5003;69758;52.580;13.068;2023-12-04T07:38:55;46;42;
80413;PMS5003;69758;52.580;13.068;2023-12-04T07:41:20;46;42;
80413;PMS5003;69758;52.580;13.068;2023-12-04T07:43:45;46;41;
80413;PMS5003;69758;52.580;13.068;2023-12-04T07:46:10;32;31;
80413;PMS5003;69758;52.580;13.068;2023-12-04T07:48:36;43;39;
80413;PMS5003;69758;52.580;13.068;2023-12-04T07:51:01;42;37;
80413;PMS5003;69758;52.580;13.068;2023-12-04T07:53:26;39;36;
80413;PMS5003;69758;52.580;13.068;2023-12-04T07:55:52;40;32;
80413;PMS5003;69758;52.580;13.068;2023-12-04T07:58:18;40;39;
80413;PMS5003;69758;52.580;13.068;2023-12-04T08:00:43;44;41;
80413;PMS5003;69758;52.580;13.068;2023-12-04T08:03:09;35;33;
80413;PMS5003;69758;52.580;13.068;2023-12-04T08:05:35;49;42;
80413;PMS5003;69758;52.580;13.068;2023-12-04T08:08:00;42;41;
80413;PMS5003;69758;52.580;13.068;2023-12-04T08:10:26;33;30;
80413;PMS5003;69758;52.580;13.068;2023-12-04T08:12:51;43;37;
80413;PMS5003;69758;52.580;13.068;2023-12-04T08:15:16;40;37;
80413;PMS5003;69758;52.580;13.068;2023-12-04T08:17:41;42;36;
80413;PMS5003;69758;52.580;13.068;2023-12-04T08:20:07;46;36;
80413;PMS5003;69758;52.580;13.068;2023-12-04T08:22:32;42;36;
80413;PMS5003;69758;52.580;13.068;2023-12-04T08:24:58;40;39;
80413;PMS5003;69758;52.580;13.068;2023-12-04T08:27:24;34;33;
80413;PMS5003;69758;52.580;13.068;2023-12-04T08:29:49;43;39;
80413;PMS5003;69758;52.580;13.068;2023-12-04T08:32:14;42;37;
80413;PMS5003;69758;52.580;13.068;2023-12-04T08:34:40;44;36;
80413;PMS5003;69758;52.580;13.068;2023-12-04T08:37:05;41;37;
80413;PMS5003;69758;52.580;13.068;2023-12-04T08:39:31;40;36;
80413;PMS5003;69758;52.580;13.068;2023-12-04T08:41:56;37;30;
80413;PMS5003;69758;52.580;13.068;2023-12-04T08:44:21;30;29;
80413;PMS5003;69758;52.580;13.068;2023-12-04T08:46:46;50;45;
80413;PMS5003;69758;52.580;13.068;2023-12-04T08:49:12;38;37;
80413;PMS5003;69758;52.580;13.068;2023-12-04T08:51:38;41;35;
80413;PMS5003;69758;52.580;13.068;2023-12-04T08:54:03;31;30;
80413;PMS5003;69758;52.580;13.068;2023-12-04T08:56:28;34;31;
80413;PMS5003;69758;52.580;13.068;2023-12-04T08:58:53;38;33;
80413;PMS5003;69758;52.580;13.068;2023-12-04T09:01:19;41;37;
80413;PMS5003;69758;52.580;13.068;2023-12-04T09:03:45;34;31;
80413;PMS5003;69758;52.580;13.068;2023-12-04T09:06:10;34;27;
80413;PMS5003;69758;52.580;13.068;2023-12-04T09:08:35;38;34;
80413;PMS5003;69758;52.580;13.068;2023-12-04T09:11:01;38;34;
80413;PMS5003;69758;52.580;13.068;2023-12-04T09:13:27;27;27;
80413;PMS5003;69758;52.580;13.068;2023-12-04T09:15:52;35;31;
80413;PMS5003;69758;52.580;13.068;2023-12-04T09:18:17;32;31;
80413;PMS5003;69758;52.580;13.068;2023-12-04T09:20:42;32;31;
80413;PMS5003;69758;52.580;13.068;2023-12-04T09:23:08;47;46;
80413;PMS5003;69758;52.580;13.068;2023-12-04T09:25:33;63;54;
80413;PMS5003;69758;52.580;13.068;2023-12-04T09:27:58;45;42;
80413;PMS5003;69758;52.580;13.068;2023-12-04T09:30:25;38;36;
80413;PMS5003;69758;52.580;13.068;2023-12-04T09:32:49;45;35;
80413;PMS5003;69758;52.580;13.068;2023-12-04T09:35:14;35;35;
80413;PMS5003;69758;52.580;13.068;2023-12-04T09:37:40;36;30;
80413;PMS5003;69758;52.580;13.068;2023-12-04T09:40:06;32;30;
80413;PMS5003;69758;52.580;13.068;2023-12-04T09:42:31;38;34;
80413;PMS5003;69758;52.580;13.068;2023-12-04T09:44:57;39;37;
80413;PMS5003;69758;52.580;13.068;2023-12-04T09:47:22;34;28;
80413;PMS5003;69758;52.580;13.068;2023-12-04T09:49:48;32;30;
80413;PMS5003;69758;52.580;13.068;2023-12-04T09:52:12;34;30;
80413;PMS5003;69758;52.580;13.068;2023-12-04T09:54:38;33;33;
80413;PMS5003;69758;52.580;13.068;2023-12-04T09:57:04;32;30;
80413;PMS5003;69758;52.580;13.068;2023-12-04T09:59:29;34;31;
80413;PMS5003;69758;52.580;13.068;2023-12-04T10:01:55;28;28;
80413;PMS5003;69758;52.580;13.068;2023-12-04T10:04:20;28;27;
80413;PMS5003;69758;52.580;13.068;2023-12-04T10:06:45;42;35;
80413;PMS5003;69758;52.580;13.068;2023-12-04T10:09:11;35;33;
80413;PMS5003;69758;52.580;13.068;2023-12-04T10:11:39;36;35;
80413;PMS5003;69758;52.580;13.068;2023-12-04T10:14:01;40;35;
80413;PMS5003;69758;52.580;13.068;2023-12-04T10:16:33;46;36;
80413;PMS5003;69758;52.580;13.068;2023-12-04T10:18:52;37;35;
80413;PMS5003;69758;52.580;13.068;2023-12-04T10:21:18;31;28;
80413;PMS5003;69758;52.580;13.068;2023-12-04T10:23:43;27;24;
80413;PMS5003;69758;52.580;13.068;2023-12-04T10:26:09;36;35;
80413;PMS5003;69758;52.580;13.068;2023-12-04T10:28:34;31;29;
80413;PMS5003;69758;52.580;13.068;2023-12-04T10:30:59;36;32;
80413;PMS5003;69758;52.580;13.068;2023-12-04T10:33:25;33;31;
80413;PMS5003;69758;52.580;13.068;2023-12-04T10:35:51;35;29;
80413;PMS5003;69758;52.580;13.068;2023-12-04T10:38:16;33;31;
80413;PMS5003;69758;52.580;13.068;2023-12-04T10:40:41;36;32;
80413;PMS5003;69758;52.580;13.068;2023-12-04T10:43:11;33;32;
80413;PMS5003;69758;52.580;13.068;2023-12-04T10:45:32;29;27;
80413;PMS5003;69758;52.580;13.068;2023-12-04T10:47:58;32;28;
80413;PMS5003;69758;52.580;13.068;2023-12-04T10:50:23;36;32;
80413;PMS5003;69758;52.580;13.068;2023-12-04T10:52:48;42;37;
80413;PMS5003;69758;52.580;13.068;2023-12-04T10:55:13;35;33;
80413;PMS5003;69758;52.580;13.068;2023-12-04T10:57:39;33;32;
80413;PMS5003;69758;52.580;13.068;2023-12-04T11:00:05;33;31;
80413;PMS5003;69758;52.580;13.068;2023-12-04T11:02:33;30;29;
80413;PMS5003;69758;52.580;13.068;2023-12-04T11:04:58;38;32;
80413;PMS5003;69758;52.580;13.068;2023-12-04T11:07:21;32;30;
80413;PMS5003;69758;52.580;13.068;2023-12-04T11:09:47;35;32;
80413;PMS5003;69758;52.580;13.068;2023-12-04T11:12:14;32;29;
80413;PMS5003;69758;52.580;13.068;2023-12-04T11:14:40;30;26;
80413;PMS5003;69758;52.580;13.068;2023-12-04T11:17:04;36;32;
80413;PMS5003;69758;52.580;13.068;2023-12-04T11:19:32;40;34;
80413;PMS5003;69758;52.580;13.068;2023-12-04T11:21:56;26;24;
80413;PMS5003;69758;52.580;13.068;2023-12-04T11:24:21;25;24;
80413;PMS5003;69758;52.580;13.068;2023-12-04T11:26:46;25;25;
80413;PMS5003;69758;52.580;13.068;2023-12-04T11:29:11;28;26;
80413;PMS5003;69758;52.580;13.068;2023-12-04T11:31:37;32;29;
80413;PMS5003;69758;52.580;13.068;2023-12-04T11:34:03;30;28;
80413;PMS5003;69758;52.580;13.068;2023-12-04T11:36:28;30;29;
80413;PMS5003;69758;52.580;13.068;2023-12-04T11:38:53;26;25;
80413;PMS5003;69758;52.580;13.068;2023-12-04T11:41:19;34;30;
80413;PMS5003;69758;52.580;13.068;2023-12-04T11:43:45;26;22;
80413;PMS5003;69758;52.580;13.068;2023-12-04T11:46:10;36;29;
80413;PMS5003;69758;52.580;13.068;2023-12-04T11:48:36;30;26;
80413;PMS5003;69758;52.580;13.068;2023-12-04T11:51:00;29;26;
80413;PMS5003;69758;52.580;13.068;2023-12-04T11:53:26;30;22;
80413;PMS5003;69758;52.580;13.068;2023-12-04T11:55:51;26;25;
80413;PMS5003;69758;52.580;13.068;2023-12-04T11:58:17;36;30;
80413;PMS5003;69758;52.580;13.068;2023-12-04T12:00:42;37;36;
80413;PMS5003;69758;52.580;13.068;2023-12-04T12:03:07;33;29;
80413;PMS5003;69758;52.580;13.068;2023-12-04T12:05:33;29;26;
80413;PMS5003;69758;52.580;13.068;2023-12-04T12:07:59;32;28;
80413;PMS5003;69758;52.580;13.068;2023-12-04T12:10:24;27;26;
80413;PMS5003;69758;52.580;13.068;2023-12-04T12:12:50;23;22;
80413;PMS5003;69758;52.580;13.068;2023-12-04T12:15:15;30;26;
80413;PMS5003;69758;52.580;13.068;2023-12-04T12:17:41;29;29;
80413;PMS5003;69758;52.580;13.068;2023-12-04T12:20:06;30;30;
80413;PMS5003;69758;52.580;13.068;2023-12-04T12:22:31;36;33;
80413;PMS5003;69758;52.580;13.068;2023-12-04T12:24:57;25;23;
80413;PMS5003;69758;52.580;13.068;2023-12-04T12:27:24;38;30;
80413;PMS5003;69758;52.580;13.068;2023-12-04T12:29:48;25;23;
80413;PMS5003;69758;52.580;13.068;2023-12-04T12:32:13;30;26;
80413;PMS5003;69758;52.580;13.068;2023-12-04T12:34:38;31;30;
80413;PMS5003;69758;52.580;13.068;2023-12-04T12:37:04;26;22;
80413;PMS5003;69758;52.580;13.068;2023-12-04T12:39:30;28;26;
80413;PMS5003;69758;52.580;13.068;2023-12-04T12:41:55;27;23;
80413;PMS5003;69758;52.580;13.068;2023-12-04T12:44:21;26;25;
80413;PMS5003;69758;52.580;13.068;2023-12-04T12:46:47;33;29;
80413;PMS5003;69758;52.580;13.068;2023-12-04T12:49:13;29;26;
80413;PMS5003;69758;52.580;13.068;2023-12-04T12:51:40;23;22;
80413;PMS5003;69758;52.580;13.068;2023-12-04T12:54:04;33;30;
80413;PMS5003;69758;52.580;13.068;2023-12-04T12:56:30;31;29;
80413;PMS5003;69758;52.580;13.068;2023-12-04T12:58:55;34;31;
80413;PMS5003;69758;52.580;13.068;2023-12-04T13:01:22;31;27;
80413;PMS5003;69758;52.580;13.068;2023-12-04T13:03:46;34;26;
80413;PMS5003;69758;52.580;13.068;2023-12-04T13:06:11;31;30;
80413;PMS5003;69758;52.580;13.068;2023-12-04T13:08:36;31;29;
80413;PMS5003;69758;52.580;13.068;2023-12-04T13:11:01;27;22;
80413;PMS5003;69758;52.580;13.068;2023-12-04T13:13:27;30;25;
80413;PMS5003;69758;52.580;13.068;2023-12-04T13:15:52;23;22;
80413;PMS5003;69758;52.580;13.068;2023-12-04T13:18:17;26;25;
80413;PMS5003;69758;52.580;13.068;2023-12-04T13:20:44;26;23;
80413;PMS5003;69758;52.580;13.068;2023-12-04T13:23:09;26;25;
80413;PMS5003;69758;52.580;13.068;2023-12-04T13:25:35;25;21;
80413;PMS5003;69758;52.580;13.068;2023-12-04T13:28:01;23;23;
80413;PMS5003;69758;52.580;13.068;2023-12-04T13:30:26;22;19;
80413;PMS5003;69758;52.580;13.068;2023-12-04T13:32:51;31;26;
80413;PMS5003;69758;52.580;13.068;2023-12-04T13:35:17;26;26;
80413;PMS5003;69758;52.580;13.068;2023-12-04T13:37:42;25;21;
80413;PMS5003;69758;52.580;13.068;2023-12-04T13:40:07;34;29;
80413;PMS5003;69758;52.580;13.068;2023-12-04T13:42:33;23;21;
80413;PMS5003;69758;52.580;13.068;2023-12-04T13:44:58;35;31;
80413;PMS5003;69758;52.580;13.068;2023-12-04T13:47:24;25;22;
80413;PMS5003;69758;52.580;13.068;2023-12-04T13:49:49;26;25;
80413;PMS5003;69758;52.580;13.068;2023-12-04T13:52:15;25;23;
80413;PMS5003;69758;52.580;13.068;2023-12-04T13:54:40;22;19;
80413;PMS5003;69758;52.580;13.068;2023-12-04T13:57:06;30;27;
80413;PMS5003;69758;52.580;13.068;2023-12-04T13:59:31;22;21;
80413;PMS5003;69758;52.580;13.068;2023-12-04T14:01:57;21;21;
80413;PMS5003;69758;52.580;13.068;2023-12-04T14:04:22;27;25;
80413;PMS5003;69758;52.580;13.068;2023-12-04T14:06:48;26;25;
80413;PMS5003;69758;52.580;13.068;2023-12-04T14:09:14;27;23;
80413;PMS5003;69758;52.580;13.068;2023-12-04T14:11:39;29;27;
80413;PMS5003;69758;52.580;13.068;2023-12-04T14:14:05;23;21;
80413;PMS5003;69758;52.580;13.068;2023-12-04T14:16:30;21;19;
80413;PMS5003;69758;52.580;13.068;2023-12-04T14:18:56;27;26;
80413;PMS5003;69758;52.580;13.068;2023-12-04T14:21:21;23;21;
80413;PMS5003;69758;52.580;13.068;2023-12-04T14:23:46;26;23;
80413;PMS5003;69758;52.580;13.068;2023-12-04T14:26:12;25;25;
80413;PMS5003;69758;52.580;13.068;2023-12-04T14:28:38;27;25;
80413;PMS5003;69758;52.580;13.068;2023-12-04T14:31:04;27;26;
80413;PMS5003;69758;52.580;13.068;2023-12-04T14:33:29;25;23;
80413;PMS5003;69758;52.580;13.068;2023-12-04T14:35:54;25;22;
80413;PMS5003;69758;52.580;13.068;2023-12-04T14:38:20;26;26;
80413;PMS5003;69758;52.580;13.068;2023-12-04T14:40:46;30;26;
80413;PMS5003;69758;52.580;13.068;2023-12-04T14:43:11;41;38;
80413;PMS5003;69758;52.580;13.068;2023-12-04T14:45:36;26;26;
80413;PMS5003;69758;52.580;13.068;2023-12-04T14:48:01;33;30;
80413;PMS5003;69758;52.580;13.068;2023-12-04T14:50:30;27;26;
80413;PMS5003;69758;52.580;13.068;2023-12-04T14:52:52;37;27;
80413;PMS5003;69758;52.580;13.068;2023-12-04T14:55:18;34;29;
80413;PMS5003;69758;52.580;13.068;2023-12-04T14:57:43;31;30;
80413;PMS5003;69758;52.580;13.068;2023-12-04T15:00:09;26;25;
80413;PMS5003;69758;52.580;13.068;2023-12-04T15:02:34;32;26;
80413;PMS5003;69758;52.580;13.068;2023-12-04T15:04:59;34;29;
80413;PMS5003;69758;52.580;13.068;2023-12-04T15:07:25;31;30;
80413;PMS5003;69758;52.580;13.068;2023-12-04T15:09:50;31;26;
80413;PMS5003;69758;52.580;13.068;2023-12-04T15:12:16;30;29;
80413;PMS5003;69758;52.580;13.068;2023-12-04T15:14:41;33;29;
80413;PMS5003;69758;52.580;13.068;2023-12-04T15:17:07;31;29;
80413;PMS5003;69758;52.580;13.068;2023-12-04T15:19:32;38;34;
80413;PMS5003;69758;52.580;13.068;2023-12-04T15:21:58;39;34;
80413;PMS5003;69758;52.580;13.068;2023-12-04T15:24:23;25;23;
80413;PMS5003;69758;52.580;13.068;2023-12-04T15:26:49;26;23;
80413;PMS5003;69758;52.580;13.068;2023-12-04T15:29:14;27;26;
80413;PMS5003;69758;52.580;13.068;2023-12-04T15:31:40;39;33;
80413;PMS5003;69758;52.580;13.068;2023-12-04T15:34:05;34;33;
80413;PMS5003;69758;52.580;13.068;2023-12-04T15:36:31;41;31;
80413;PMS5003;69758;52.580;13.068;2023-12-04T15:38:56;31;30;
80413;PMS5003;69758;52.580;13.068;2023-12-04T15:41:21;29;27;
80413;PMS5003;69758;52.580;13.068;2023-12-04T15:43:46;29;26;
80413;PMS5003;69758;52.580;13.068;2023-12-04T15:46:12;25;22;
80413;PMS5003;69758;52.580;13.068;2023-12-04T15:48:38;25;22;